sensor_id;sensor_type;location;lat;lon;timestamp;P1;durP1;ratioP1;P2;durP2;ratioP2
46765;SDS011;32527;51.986;5.842;2022-11-15T00:02:08;52.78;;;21.02;;
46765;SDS011;32527;51.986;5.842;2022-11-15T00:04:52;45.95;;;19.65;;
46765;SDS011;32527;51.986;5.842;2022-11-15T00:07:36;48.47;;;21.98;;
46765;SDS011;32527;51.986;5.842;2022-11-15T00:13:11;52.25;;;19.73;;
46765;SDS011;32527;51.986;5.842;2022-11-15T00:15:57;46.92;;;20.17;;
46765;SDS011;32527;51.986;5.842;2022-11-15T00:18:42;51.08;;;19.92;;
46765;SDS011;32527;51.986;5.842;2022-11-15T00:21:26;50.22;;;20.08;;
46765;SDS011;32527;51.986;5.842;2022-11-15T00:24:10;47.95;;;21.70;;
46765;SDS011;32527;51.986;5.842;2022-11-15T00:26:55;52.88;;;20.73;;
46765;SDS011;32527;51.986;5.842;2022-11-15T00:29:40;57.60;;;21.63;;
46765;SDS011;32527;51.986;5.842;2022-11-15T00:32:30;54.63;;;21.20;;
46765;SDS011;32527;51.986;5.842;2022-11-15T00:35:15;57.00;;;23.25;;
46765;SDS011;32527;51.986;5.842;2022-11-15T00:43:28;53.63;;;21.60;;
46765;SDS011;32527;51.986;5.842;2022-11-15T00:46:13;47.80;;;21.45;;
46765;SDS011;32527;51.986;5.842;2022-11-15T00:48:58;53.70;;;20.92;;
46765;SDS011;32527;51.986;5.842;2022-11-15T00:54:26;54.95;;;22.27;;
46765;SDS011;32527;51.986;5.842;2022-11-15T00:59:54;47.17;;;19.98;;
46765;SDS011;32527;51.986;5.842;2022-11-15T01:05:22;45.28;;;19.73;;
46765;SDS011;32527;51.986;5.842;2022-11-15T01:08:11;51.72;;;22.33;;
46765;SDS011;32527;51.986;5.842;2022-11-15T01:11:10;44.90;;;20.83;;
46765;SDS011;32527;51.986;5.842;2022-11-15T01:13:55;38.30;;;20.25;;
46765;SDS011;32527;51.986;5.842;2022-11-15T01:16:39;40.10;;;20.65;;
46765;SDS011;32527;51.986;5.842;2022-11-15T01:19:23;45.17;;;21.67;;
46765;SDS011;32527;51.986;5.842;2022-11-15T01:24:52;47.30;;;22.60;;
46765;SDS011;32527;51.986;5.842;2022-11-15T01:27:36;41.80;;;20.33;;
46765;SDS011;32527;51.986;5.842;2022-11-15T01:30:20;48.70;;;21.52;;
46765;SDS011;32527;51.986;5.842;2022-11-15T01:35:49;44.55;;;21.85;;
46765;SDS011;32527;51.986;5.842;2022-11-15T01:38:33;39.97;;;20.13;;
46765;SDS011;32527;51.986;5.842;2022-11-15T01:41:19;42.38;;;22.55;;
46765;SDS011;32527;51.986;5.842;2022-11-15T01:47:22;43.60;;;20.73;;
46765;SDS011;32527;51.986;5.842;2022-11-15T01:50:19;44.83;;;21.88;;
46765;SDS011;32527;51.986;5.842;2022-11-15T01:53:08;52.53;;;23.80;;
46765;SDS011;32527;51.986;5.842;2022-11-15T01:55:54;45.05;;;21.90;;
46765;SDS011;32527;51.986;5.842;2022-11-15T01:58:39;47.60;;;23.15;;
46765;SDS011;32527;51.986;5.842;2022-11-15T02:01:25;47.97;;;21.30;;
46765;SDS011;32527;51.986;5.842;2022-11-15T02:04:13;46.75;;;21.10;;
46765;SDS011;32527;51.986;5.842;2022-11-15T02:07:08;55.53;;;25.05;;
46765;SDS011;32527;51.986;5.842;2022-11-15T02:10:02;50.13;;;23.67;;
46765;SDS011;32527;51.986;5.842;2022-11-15T02:13:08;51.53;;;22.38;;
46765;SDS011;32527;51.986;5.842;2022-11-15T02:15:59;42.83;;;21.65;;
46765;SDS011;32527;51.986;5.842;2022-11-15T02:18:48;44.47;;;21.40;;
46765;SDS011;32527;51.986;5.842;2022-11-15T02:21:42;42.78;;;22.48;;
46765;SDS011;32527;51.986;5.842;2022-11-15T02:28:06;41.75;;;21.15;;
46765;SDS011;32527;51.986;5.842;2022-11-15T02:31:05;44.05;;;21.55;;
46765;SDS011;32527;51.986;5.842;2022-11-15T02:34:19;47.42;;;22.48;;
46765;SDS011;32527;51.986;5.842;2022-11-15T02:37:39;48.63;;;21.67;;
46765;SDS011;32527;51.986;5.842;2022-11-15T02:40:53;43.92;;;21.88;;
46765;SDS011;32527;51.986;5.842;2022-11-15T02:49:51;43.70;;;22.17;;
46765;SDS011;32527;51.986;5.842;2022-11-15T02:52:44;41.65;;;22.45;;
46765;SDS011;32527;51.986;5.842;2022-11-15T02:55:31;45.92;;;23.88;;
46765;SDS011;32527;51.986;5.842;2022-11-15T03:04:50;40.65;;;21.48;;
46765;SDS011;32527;51.986;5.842;2022-11-15T03:13:33;38.50;;;19.58;;
46765;SDS011;32527;51.986;5.842;2022-11-15T03:16:34;39.83;;;20.65;;
46765;SDS011;32527;51.986;5.842;2022-11-15T03:22:24;34.42;;;18.98;;
46765;SDS011;32527;51.986;5.842;2022-11-15T03:25:14;45.67;;;21.52;;
46765;SDS011;32527;51.986;5.842;2022-11-15T03:28:03;39.88;;;21.08;;
46765;SDS011;32527;51.986;5.842;2022-11-15T03:30:50;43.47;;;21.77;;
46765;SDS011;32527;51.986;5.842;2022-11-15T03:33:38;42.22;;;22.25;;
46765;SDS011;32527;51.986;5.842;2022-11-15T03:36:23;41.45;;;20.20;;
46765;SDS011;32527;51.986;5.842;2022-11-15T03:39:08;41.70;;;21.05;;
46765;SDS011;32527;51.986;5.842;2022-11-15T03:41:58;42.13;;;21.45;;
46765;SDS011;32527;51.986;5.842;2022-11-15T03:45:02;40.47;;;20.20;;
46765;SDS011;32527;51.986;5.842;2022-11-15T03:48:10;45.10;;;23.58;;
46765;SDS011;32527;51.986;5.842;2022-11-15T03:50:58;46.45;;;22.23;;
46765;SDS011;32527;51.986;5.842;2022-11-15T03:53:43;36.60;;;21.17;;
46765;SDS011;32527;51.986;5.842;2022-11-15T03:56:27;40.55;;;20.52;;
46765;SDS011;32527;51.986;5.842;2022-11-15T03:59:11;44.97;;;21.77;;
46765;SDS011;32527;51.986;5.842;2022-11-15T04:01:56;41.78;;;21.95;;
46765;SDS011;32527;51.986;5.842;2022-11-15T04:04:40;55.25;;;23.35;;
46765;SDS011;32527;51.986;5.842;2022-11-15T04:07:24;47.05;;;23.02;;
46765;SDS011;32527;51.986;5.842;2022-11-15T04:12:56;42.63;;;20.90;;
46765;SDS011;32527;51.986;5.842;2022-11-15T04:15:40;47.67;;;22.20;;
46765;SDS011;32527;51.986;5.842;2022-11-15T04:21:09;46.03;;;21.38;;
46765;SDS011;32527;51.986;5.842;2022-11-15T04:24:11;44.05;;;22.25;;
46765;SDS011;32527;51.986;5.842;2022-11-15T04:26:56;52.97;;;22.98;;
46765;SDS011;32527;51.986;5.842;2022-11-15T04:29:41;47.33;;;22.05;;
46765;SDS011;32527;51.986;5.842;2022-11-15T04:32:25;43.95;;;20.95;;
46765;SDS011;32527;51.986;5.842;2022-11-15T04:37:53;45.58;;;22.63;;
46765;SDS011;32527;51.986;5.842;2022-11-15T04:40:38;44.28;;;21.73;;
46765;SDS011;32527;51.986;5.842;2022-11-15T04:43:23;45.58;;;21.40;;
46765;SDS011;32527;51.986;5.842;2022-11-15T04:46:07;45.13;;;22.63;;
46765;SDS011;32527;51.986;5.842;2022-11-15T04:51:36;40.67;;;20.58;;
46765;SDS011;32527;51.986;5.842;2022-11-15T04:54:20;41.38;;;22.30;;
46765;SDS011;32527;51.986;5.842;2022-11-15T04:59:48;43.17;;;21.80;;
46765;SDS011;32527;51.986;5.842;2022-11-15T05:02:32;44.15;;;22.00;;
46765;SDS011;32527;51.986;5.842;2022-11-15T05:05:35;42.03;;;21.67;;
46765;SDS011;32527;51.986;5.842;2022-11-15T05:08:20;43.40;;;22.23;;
46765;SDS011;32527;51.986;5.842;2022-11-15T05:11:04;43.65;;;23.45;;
46765;SDS011;32527;51.986;5.842;2022-11-15T05:13:48;42.55;;;21.60;;
46765;SDS011;32527;51.986;5.842;2022-11-15T05:16:33;45.38;;;23.77;;
46765;SDS011;32527;51.986;5.842;2022-11-15T05:19:18;43.55;;;21.77;;
46765;SDS011;32527;51.986;5.842;2022-11-15T05:22:02;49.03;;;22.42;;
46765;SDS011;32527;51.986;5.842;2022-11-15T05:27:30;44.78;;;21.50;;
46765;SDS011;32527;51.986;5.842;2022-11-15T05:30:15;42.28;;;20.88;;
46765;SDS011;32527;51.986;5.842;2022-11-15T05:33:00;45.28;;;22.33;;
46765;SDS011;32527;51.986;5.842;2022-11-15T05:36:06;38.78;;;21.52;;
46765;SDS011;32527;51.986;5.842;2022-11-15T05:38:57;41.90;;;20.55;;
46765;SDS011;32527;51.986;5.842;2022-11-15T05:41:45;43.78;;;21.98;;
46765;SDS011;32527;51.986;5.842;2022-11-15T05:44:32;48.35;;;23.40;;
46765;SDS011;32527;51.986;5.842;2022-11-15T05:47:21;47.53;;;22.85;;
46765;SDS011;32527;51.986;5.842;2022-11-15T05:50:11;45.70;;;24.25;;
46765;SDS011;32527;51.986;5.842;2022-11-15T05:52:58;44.05;;;22.65;;
46765;SDS011;32527;51.986;5.842;2022-11-15T05:55:43;50.25;;;22.17;;
46765;SDS011;32527;51.986;5.842;2022-11-15T05:58:27;53.33;;;23.05;;
46765;SDS011;32527;51.986;5.842;2022-11-15T06:01:12;48.88;;;22.75;;
46765;SDS011;32527;51.986;5.842;2022-11-15T06:03:57;48.25;;;22.38;;
46765;SDS011;32527;51.986;5.842;2022-11-15T06:06:41;56.63;;;24.83;;
46765;SDS011;32527;51.986;5.842;2022-11-15T06:09:25;49.67;;;23.63;;
46765;SDS011;32527;51.986;5.842;2022-11-15T06:14:53;49.47;;;22.70;;
46765;SDS011;32527;51.986;5.842;2022-11-15T06:17:38;48.17;;;24.23;;
46765;SDS011;32527;51.986;5.842;2022-11-15T06:20:22;49.92;;;21.95;;
46765;SDS011;32527;51.986;5.842;2022-11-15T06:23:06;46.58;;;21.88;;
46765;SDS011;32527;51.986;5.842;2022-11-15T06:25:50;45.80;;;22.50;;
46765;SDS011;32527;51.986;5.842;2022-11-15T06:28:35;42.45;;;23.35;;
46765;SDS011;32527;51.986;5.842;2022-11-15T06:31:19;43.00;;;21.73;;
46765;SDS011;32527;51.986;5.842;2022-11-15T06:34:04;42.40;;;21.92;;
46765;SDS011;32527;51.986;5.842;2022-11-15T06:36:48;40.85;;;20.98;;
46765;SDS011;32527;51.986;5.842;2022-11-15T06:42:16;42.80;;;20.58;;
46765;SDS011;32527;51.986;5.842;2022-11-15T06:47:45;41.35;;;20.98;;
46765;SDS011;32527;51.986;5.842;2022-11-15T06:50:30;42.15;;;21.45;;
46765;SDS011;32527;51.986;5.842;2022-11-15T06:53:14;47.08;;;20.58;;
46765;SDS011;32527;51.986;5.842;2022-11-15T06:56:02;41.88;;;21.67;;
46765;SDS011;32527;51.986;5.842;2022-11-15T06:58:47;35.10;;;20.95;;
46765;SDS011;32527;51.986;5.842;2022-11-15T07:01:32;41.58;;;21.45;;
46765;SDS011;32527;51.986;5.842;2022-11-15T07:04:17;41.90;;;20.20;;
46765;SDS011;32527;51.986;5.842;2022-11-15T07:07:01;43.03;;;22.13;;
46765;SDS011;32527;51.986;5.842;2022-11-15T07:12:30;43.15;;;21.88;;
46765;SDS011;32527;51.986;5.842;2022-11-15T07:18:02;41.65;;;19.92;;
46765;SDS011;32527;51.986;5.842;2022-11-15T07:20:46;37.63;;;19.80;;
46765;SDS011;32527;51.986;5.842;2022-11-15T07:23:31;43.03;;;21.33;;
46765;SDS011;32527;51.986;5.842;2022-11-15T07:26:16;40.58;;;20.38;;
46765;SDS011;32527;51.986;5.842;2022-11-15T07:29:00;42.63;;;22.15;;
46765;SDS011;32527;51.986;5.842;2022-11-15T07:31:44;42.08;;;21.58;;
46765;SDS011;32527;51.986;5.842;2022-11-15T07:37:13;35.50;;;19.42;;
46765;SDS011;32527;51.986;5.842;2022-11-15T07:39:57;41.65;;;20.23;;
46765;SDS011;32527;51.986;5.842;2022-11-15T07:42:42;35.60;;;19.02;;
46765;SDS011;32527;51.986;5.842;2022-11-15T07:45:43;42.90;;;19.48;;
46765;SDS011;32527;51.986;5.842;2022-11-15T07:48:28;35.60;;;20.15;;
46765;SDS011;32527;51.986;5.842;2022-11-15T07:51:13;36.25;;;18.52;;
46765;SDS011;32527;51.986;5.842;2022-11-15T07:53:59;37.22;;;18.60;;
46765;SDS011;32527;51.986;5.842;2022-11-15T07:56:43;36.90;;;18.90;;
46765;SDS011;32527;51.986;5.842;2022-11-15T07:59:27;38.10;;;19.58;;
46765;SDS011;32527;51.986;5.842;2022-11-15T08:02:12;40.97;;;20.63;;
46765;SDS011;32527;51.986;5.842;2022-11-15T08:04:57;39.95;;;20.55;;
46765;SDS011;32527;51.986;5.842;2022-11-15T08:07:42;36.33;;;19.38;;
46765;SDS011;32527;51.986;5.842;2022-11-15T08:13:11;36.72;;;19.33;;
46765;SDS011;32527;51.986;5.842;2022-11-15T08:15:59;37.58;;;19.58;;
46765;SDS011;32527;51.986;5.842;2022-11-15T08:18:45;39.00;;;20.15;;
46765;SDS011;32527;51.986;5.842;2022-11-15T08:21:30;39.13;;;19.40;;
46765;SDS011;32527;51.986;5.842;2022-11-15T08:24:14;33.58;;;18.20;;
46765;SDS011;32527;51.986;5.842;2022-11-15T08:26:58;34.40;;;17.80;;
46765;SDS011;32527;51.986;5.842;2022-11-15T08:29:42;38.83;;;19.85;;
46765;SDS011;32527;51.986;5.842;2022-11-15T08:32:28;36.30;;;19.33;;
46765;SDS011;32527;51.986;5.842;2022-11-15T08:35:13;35.13;;;18.88;;
46765;SDS011;32527;51.986;5.842;2022-11-15T08:37:57;31.58;;;17.20;;
46765;SDS011;32527;51.986;5.842;2022-11-15T08:43:25;30.80;;;17.98;;
46765;SDS011;32527;51.986;5.842;2022-11-15T08:46:11;29.25;;;16.90;;
46765;SDS011;32527;51.986;5.842;2022-11-15T08:48:57;35.70;;;17.90;;
46765;SDS011;32527;51.986;5.842;2022-11-15T08:51:41;35.60;;;19.17;;
46765;SDS011;32527;51.986;5.842;2022-11-15T08:54:25;35.72;;;18.45;;
46765;SDS011;32527;51.986;5.842;2022-11-15T08:57:10;36.10;;;18.58;;
46765;SDS011;32527;51.986;5.842;2022-11-15T08:59:54;34.15;;;17.40;;
46765;SDS011;32527;51.986;5.842;2022-11-15T09:02:39;38.70;;;17.85;;
46765;SDS011;32527;51.986;5.842;2022-11-15T09:05:24;30.48;;;17.55;;
46765;SDS011;32527;51.986;5.842;2022-11-15T09:08:09;35.63;;;17.98;;
46765;SDS011;32527;51.986;5.842;2022-11-15T09:10:54;30.10;;;17.10;;
46765;SDS011;32527;51.986;5.842;2022-11-15T09:16:22;35.42;;;17.17;;
46765;SDS011;32527;51.986;5.842;2022-11-15T09:21:51;30.48;;;16.02;;
46765;SDS011;32527;51.986;5.842;2022-11-15T09:24:35;27.95;;;14.43;;
46765;SDS011;32527;51.986;5.842;2022-11-15T09:27:20;26.52;;;13.50;;
46765;SDS011;32527;51.986;5.842;2022-11-15T09:30:04;26.15;;;15.15;;
46765;SDS011;32527;51.986;5.842;2022-11-15T09:32:49;21.35;;;13.40;;
46765;SDS011;32527;51.986;5.842;2022-11-15T09:35:33;23.52;;;12.90;;
46765;SDS011;32527;51.986;5.842;2022-11-15T09:38:18;25.13;;;13.30;;
46765;SDS011;32527;51.986;5.842;2022-11-15T09:49:42;20.05;;;10.93;;
46765;SDS011;32527;51.986;5.842;2022-11-15T09:52:16;15.80;;;9.93;;
46765;SDS011;32527;51.986;5.842;2022-11-15T09:54:46;22.48;;;10.20;;
46765;SDS011;32527;51.986;5.842;2022-11-15T09:57:19;18.77;;;10.02;;
46765;SDS011;32527;51.986;5.842;2022-11-15T10:03:00;17.40;;;8.83;;
46765;SDS011;32527;51.986;5.842;2022-11-15T10:05:37;14.35;;;8.73;;
46765;SDS011;32527;51.986;5.842;2022-11-15T10:10:59;13.88;;;8.15;;
46765;SDS011;32527;51.986;5.842;2022-11-15T10:13:32;16.45;;;8.82;;
46765;SDS011;32527;51.986;5.842;2022-11-15T10:16:04;11.85;;;7.47;;
46765;SDS011;32527;51.986;5.842;2022-11-15T10:18:59;14.60;;;8.05;;
46765;SDS011;32527;51.986;5.842;2022-11-15T10:21:40;14.30;;;7.47;;
46765;SDS011;32527;51.986;5.842;2022-11-15T10:24:31;12.32;;;7.65;;
46765;SDS011;32527;51.986;5.842;2022-11-15T10:27:00;10.95;;;6.97;;
46765;SDS011;32527;51.986;5.842;2022-11-15T10:29:26;11.50;;;6.97;;
46765;SDS011;32527;51.986;5.842;2022-11-15T10:31:52;10.57;;;6.43;;
46765;SDS011;32527;51.986;5.842;2022-11-15T10:34:19;12.75;;;6.72;;
46765;SDS011;32527;51.986;5.842;2022-11-15T10:36:54;11.23;;;6.43;;
46765;SDS011;32527;51.986;5.842;2022-11-15T10:39:21;8.00;;;5.70;;
46765;SDS011;32527;51.986;5.842;2022-11-15T10:41:47;10.75;;;5.70;;
46765;SDS011;32527;51.986;5.842;2022-11-15T10:46:42;9.13;;;5.70;;
46765;SDS011;32527;51.986;5.842;2022-11-15T10:49:24;7.05;;;4.35;;
46765;SDS011;32527;51.986;5.842;2022-11-15T10:51:55;8.70;;;4.70;;
46765;SDS011;32527;51.986;5.842;2022-11-15T10:54:41;7.85;;;4.50;;
46765;SDS011;32527;51.986;5.842;2022-11-15T10:57:12;10.73;;;5.50;;
46765;SDS011;32527;51.986;5.842;2022-11-15T10:59:45;13.13;;;5.32;;
46765;SDS011;32527;51.986;5.842;2022-11-15T11:05:04;6.05;;;3.83;;
46765;SDS011;32527;51.986;5.842;2022-11-15T11:07:32;5.97;;;3.40;;
46765;SDS011;32527;51.986;5.842;2022-11-15T11:10:01;5.25;;;3.53;;
46765;SDS011;32527;51.986;5.842;2022-11-15T11:12:32;6.10;;;3.65;;
46765;SDS011;32527;51.986;5.842;2022-11-15T11:14:59;7.68;;;3.53;;
46765;SDS011;32527;51.986;5.842;2022-11-15T11:20:22;8.40;;;3.50;;
46765;SDS011;32527;51.986;5.842;2022-11-15T11:25:46;6.85;;;3.25;;
46765;SDS011;32527;51.986;5.842;2022-11-15T11:33:57;9.90;;;3.28;;
46765;SDS011;32527;51.986;5.842;2022-11-15T11:42:23;8.93;;;3.10;;
46765;SDS011;32527;51.986;5.842;2022-11-15T11:47:46;4.53;;;2.17;;
46765;SDS011;32527;51.986;5.842;2022-11-15T11:50:15;7.07;;;2.83;;
46765;SDS011;32527;51.986;5.842;2022-11-15T11:52:56;4.75;;;2.28;;
46765;SDS011;32527;51.986;5.842;2022-11-15T11:55:26;6.07;;;2.40;;
46765;SDS011;32527;51.986;5.842;2022-11-15T12:00:33;7.68;;;2.45;;
46765;SDS011;32527;51.986;5.842;2022-11-15T12:03:07;8.55;;;2.58;;
46765;SDS011;32527;51.986;5.842;2022-11-15T12:05:54;5.78;;;2.38;;
46765;SDS011;32527;51.986;5.842;2022-11-15T12:11:12;3.83;;;2.05;;
46765;SDS011;32527;51.986;5.842;2022-11-15T12:14:01;7.45;;;2.17;;
46765;SDS011;32527;51.986;5.842;2022-11-15T12:16:32;5.53;;;2.30;;
46765;SDS011;32527;51.986;5.842;2022-11-15T12:19:00;7.13;;;2.03;;
46765;SDS011;32527;51.986;5.842;2022-11-15T12:21:40;8.25;;;2.95;;
46765;SDS011;32527;51.986;5.842;2022-11-15T12:27:20;5.90;;;2.17;;
46765;SDS011;32527;51.986;5.842;2022-11-15T12:30:09;10.30;;;2.75;;
46765;SDS011;32527;51.986;5.842;2022-11-15T12:32:51;6.00;;;1.85;;
46765;SDS011;32527;51.986;5.842;2022-11-15T12:35:35;4.43;;;1.77;;
46765;SDS011;32527;51.986;5.842;2022-11-15T12:38:09;9.15;;;2.50;;
46765;SDS011;32527;51.986;5.842;2022-11-15T12:40:37;7.18;;;1.92;;
46765;SDS011;32527;51.986;5.842;2022-11-15T12:45:39;4.97;;;2.40;;
46765;SDS011;32527;51.986;5.842;2022-11-15T13:04:38;5.50;;;2.03;;
46765;SDS011;32527;51.986;5.842;2022-11-15T13:12:02;8.95;;;2.40;;
46765;SDS011;32527;51.986;5.842;2022-11-15T13:14:42;4.97;;;2.20;;
46765;SDS011;32527;51.986;5.842;2022-11-15T13:19:45;5.07;;;1.85;;
46765;SDS011;32527;51.986;5.842;2022-11-15T13:22:12;9.70;;;2.30;;
46765;SDS011;32527;51.986;5.842;2022-11-15T13:24:57;3.85;;;1.85;;
46765;SDS011;32527;51.986;5.842;2022-11-15T13:27:25;3.80;;;1.70;;
46765;SDS011;32527;51.986;5.842;2022-11-15T13:29:52;4.15;;;1.58;;
46765;SDS011;32527;51.986;5.842;2022-11-15T13:32:18;4.85;;;1.55;;
46765;SDS011;32527;51.986;5.842;2022-11-15T13:34:45;5.57;;;1.77;;
46765;SDS011;32527;51.986;5.842;2022-11-15T13:39:45;8.07;;;2.45;;
46765;SDS011;32527;51.986;5.842;2022-11-15T13:42:14;3.50;;;1.80;;
46765;SDS011;32527;51.986;5.842;2022-11-15T13:44:41;6.85;;;2.05;;
46765;SDS011;32527;51.986;5.842;2022-11-15T13:47:25;5.72;;;2.15;;
46765;SDS011;32527;51.986;5.842;2022-11-15T13:49:52;5.55;;;1.65;;
46765;SDS011;32527;51.986;5.842;2022-11-15T13:52:18;5.88;;;2.15;;
46765;SDS011;32527;51.986;5.842;2022-11-15T13:57:50;5.80;;;2.30;;
46765;SDS011;32527;51.986;5.842;2022-11-15T14:03:33;7.18;;;2.08;;
46765;SDS011;32527;51.986;5.842;2022-11-15T14:08:35;10.35;;;2.40;;
46765;SDS011;32527;51.986;5.842;2022-11-15T14:13:36;4.03;;;1.75;;
46765;SDS011;32527;51.986;5.842;2022-11-15T14:16:12;5.60;;;1.92;;
46765;SDS011;32527;51.986;5.842;2022-11-15T14:18:47;3.97;;;1.92;;
46765;SDS011;32527;51.986;5.842;2022-11-15T14:21:17;5.15;;;1.83;;
46765;SDS011;32527;51.986;5.842;2022-11-15T14:23:44;6.47;;;2.45;;
46765;SDS011;32527;51.986;5.842;2022-11-15T14:26:11;3.25;;;1.40;;
46765;SDS011;32527;51.986;5.842;2022-11-15T14:28:52;7.63;;;4.07;;
46765;SDS011;32527;51.986;5.842;2022-11-15T14:31:18;3.88;;;2.03;;
46765;SDS011;32527;51.986;5.842;2022-11-15T14:33:45;5.10;;;2.63;;
46765;SDS011;32527;51.986;5.842;2022-11-15T14:36:13;5.35;;;2.17;;
46765;SDS011;32527;51.986;5.842;2022-11-15T14:38:44;4.10;;;2.28;;
46765;SDS011;32527;51.986;5.842;2022-11-15T14:41:24;6.47;;;2.25;;
46765;SDS011;32527;51.986;5.842;2022-11-15T14:43:51;6.15;;;2.30;;
46765;SDS011;32527;51.986;5.842;2022-11-15T14:46:18;5.57;;;2.78;;
46765;SDS011;32527;51.986;5.842;2022-11-15T14:48:44;8.55;;;3.25;;
46765;SDS011;32527;51.986;5.842;2022-11-15T14:51:13;6.47;;;2.53;;
46765;SDS011;32527;51.986;5.842;2022-11-15T14:53:40;3.70;;;2.28;;
46765;SDS011;32527;51.986;5.842;2022-11-15T14:56:07;9.45;;;2.45;;
46765;SDS011;32527;51.986;5.842;2022-11-15T14:58:33;8.25;;;2.35;;
46765;SDS011;32527;51.986;5.842;2022-11-15T15:00:59;7.30;;;2.95;;
46765;SDS011;32527;51.986;5.842;2022-11-15T15:03:28;5.70;;;2.30;;
46765;SDS011;32527;51.986;5.842;2022-11-15T15:05:54;8.38;;;2.33;;
46765;SDS011;32527;51.986;5.842;2022-11-15T15:08:19;3.35;;;1.75;;
46765;SDS011;32527;51.986;5.842;2022-11-15T15:10:45;2.65;;;1.90;;
46765;SDS011;32527;51.986;5.842;2022-11-15T15:13:18;4.45;;;2.28;;
46765;SDS011;32527;51.986;5.842;2022-11-15T15:15:48;7.20;;;2.47;;
46765;SDS011;32527;51.986;5.842;2022-11-15T15:18:15;2.25;;;1.52;;
46765;SDS011;32527;51.986;5.842;2022-11-15T15:20:42;8.15;;;3.13;;
46765;SDS011;32527;51.986;5.842;2022-11-15T15:23:18;5.65;;;2.10;;
46765;SDS011;32527;51.986;5.842;2022-11-15T15:25:45;3.83;;;1.92;;
46765;SDS011;32527;51.986;5.842;2022-11-15T15:28:13;5.53;;;2.58;;
46765;SDS011;32527;51.986;5.842;2022-11-15T15:30:39;7.55;;;2.28;;
46765;SDS011;32527;51.986;5.842;2022-11-15T15:33:05;7.38;;;2.42;;
46765;SDS011;32527;51.986;5.842;2022-11-15T15:35:32;5.05;;;2.70;;
46765;SDS011;32527;51.986;5.842;2022-11-15T15:37:58;4.47;;;2.20;;
46765;SDS011;32527;51.986;5.842;2022-11-15T15:40:25;4.63;;;2.13;;
46765;SDS011;32527;51.986;5.842;2022-11-15T15:42:52;4.43;;;2.20;;
46765;SDS011;32527;51.986;5.842;2022-11-15T15:45:19;8.07;;;2.95;;
46765;SDS011;32527;51.986;5.842;2022-11-15T15:47:45;4.95;;;2.20;;
46765;SDS011;32527;51.986;5.842;2022-11-15T15:50:27;4.65;;;3.22;;
46765;SDS011;32527;51.986;5.842;2022-11-15T15:52:57;5.38;;;2.88;;
46765;SDS011;32527;51.986;5.842;2022-11-15T15:55:25;7.32;;;2.55;;
46765;SDS011;32527;51.986;5.842;2022-11-15T15:57:51;7.35;;;2.80;;
46765;SDS011;32527;51.986;5.842;2022-11-15T16:00:17;5.03;;;2.42;;
46765;SDS011;32527;51.986;5.842;2022-11-15T16:02:44;9.60;;;3.20;;
46765;SDS011;32527;51.986;5.842;2022-11-15T16:05:11;7.43;;;3.05;;
46765;SDS011;32527;51.986;5.842;2022-11-15T16:07:37;10.35;;;3.70;;
46765;SDS011;32527;51.986;5.842;2022-11-15T16:10:15;5.13;;;3.10;;
46765;SDS011;32527;51.986;5.842;2022-11-15T16:12:44;9.68;;;3.80;;
46765;SDS011;32527;51.986;5.842;2022-11-15T16:15:10;7.65;;;2.92;;
46765;SDS011;32527;51.986;5.842;2022-11-15T16:17:40;5.75;;;3.20;;
46765;SDS011;32527;51.986;5.842;2022-11-15T16:20:15;7.45;;;3.40;;
46765;SDS011;32527;51.986;5.842;2022-11-15T16:22:45;10.18;;;3.30;;
46765;SDS011;32527;51.986;5.842;2022-11-15T16:25:11;7.40;;;2.90;;
46765;SDS011;32527;51.986;5.842;2022-11-15T16:27:37;7.22;;;3.00;;
46765;SDS011;32527;51.986;5.842;2022-11-15T16:30:14;7.22;;;2.92;;
46765;SDS011;32527;51.986;5.842;2022-11-15T16:32:41;15.30;;;3.53;;
46765;SDS011;32527;51.986;5.842;2022-11-15T16:35:07;10.55;;;3.47;;
46765;SDS011;32527;51.986;5.842;2022-11-15T16:37:37;5.30;;;2.80;;
46765;SDS011;32527;51.986;5.842;2022-11-15T16:40:05;6.00;;;3.70;;
46765;SDS011;32527;51.986;5.842;2022-11-15T16:42:51;6.88;;;3.10;;
46765;SDS011;32527;51.986;5.842;2022-11-15T16:45:17;8.27;;;3.30;;
46765;SDS011;32527;51.986;5.842;2022-11-15T16:47:43;10.38;;;4.75;;
46765;SDS011;32527;51.986;5.842;2022-11-15T16:50:19;6.47;;;3.15;;
46765;SDS011;32527;51.986;5.842;2022-11-15T16:52:51;7.85;;;2.90;;
46765;SDS011;32527;51.986;5.842;2022-11-15T16:55:18;5.50;;;3.60;;
46765;SDS011;32527;51.986;5.842;2022-11-15T16:57:45;10.18;;;3.50;;
46765;SDS011;32527;51.986;5.842;2022-11-15T17:00:11;7.32;;;3.65;;
46765;SDS011;32527;51.986;5.842;2022-11-15T17:02:37;11.65;;;3.92;;
46765;SDS011;32527;51.986;5.842;2022-11-15T17:05:03;11.98;;;3.13;;
46765;SDS011;32527;51.986;5.842;2022-11-15T17:07:29;9.15;;;3.88;;
46765;SDS011;32527;51.986;5.842;2022-11-15T17:09:55;10.38;;;3.40;;
46765;SDS011;32527;51.986;5.842;2022-11-15T17:12:21;11.13;;;3.85;;
46765;SDS011;32527;51.986;5.842;2022-11-15T17:14:46;11.75;;;4.50;;
46765;SDS011;32527;51.986;5.842;2022-11-15T17:17:12;7.60;;;3.78;;
46765;SDS011;32527;51.986;5.842;2022-11-15T17:19:38;8.88;;;3.55;;
46765;SDS011;32527;51.986;5.842;2022-11-15T17:22:03;8.90;;;3.65;;
46765;SDS011;32527;51.986;5.842;2022-11-15T17:24:29;8.23;;;3.40;;
46765;SDS011;32527;51.986;5.842;2022-11-15T17:26:55;9.80;;;3.63;;
46765;SDS011;32527;51.986;5.842;2022-11-15T17:29:21;7.72;;;3.88;;
46765;SDS011;32527;51.986;5.842;2022-11-15T17:31:47;7.18;;;3.22;;
46765;SDS011;32527;51.986;5.842;2022-11-15T17:34:12;10.05;;;4.05;;
46765;SDS011;32527;51.986;5.842;2022-11-15T17:36:38;7.53;;;3.97;;
46765;SDS011;32527;51.986;5.842;2022-11-15T17:39:04;8.40;;;3.95;;
46765;SDS011;32527;51.986;5.842;2022-11-15T17:41:30;6.03;;;3.45;;
46765;SDS011;32527;51.986;5.842;2022-11-15T17:43:56;11.90;;;4.32;;
46765;SDS011;32527;51.986;5.842;2022-11-15T17:46:23;10.23;;;4.00;;
46765;SDS011;32527;51.986;5.842;2022-11-15T17:48:50;8.52;;;3.92;;
46765;SDS011;32527;51.986;5.842;2022-11-15T17:51:16;10.02;;;4.25;;
46765;SDS011;32527;51.986;5.842;2022-11-15T17:53:43;13.80;;;4.45;;
46765;SDS011;32527;51.986;5.842;2022-11-15T17:56:15;8.18;;;4.15;;
46765;SDS011;32527;51.986;5.842;2022-11-15T17:58:49;9.93;;;4.13;;
46765;SDS011;32527;51.986;5.842;2022-11-15T18:01:20;11.35;;;4.90;;
46765;SDS011;32527;51.986;5.842;2022-11-15T18:03:56;8.05;;;4.47;;
46765;SDS011;32527;51.986;5.842;2022-11-15T18:06:24;7.72;;;4.00;;
46765;SDS011;32527;51.986;5.842;2022-11-15T18:08:52;8.13;;;4.97;;
46765;SDS011;32527;51.986;5.842;2022-11-15T18:11:33;9.63;;;4.65;;
46765;SDS011;32527;51.986;5.842;2022-11-15T18:14:03;8.97;;;4.83;;
46765;SDS011;32527;51.986;5.842;2022-11-15T18:16:31;10.73;;;4.70;;
46765;SDS011;32527;51.986;5.842;2022-11-15T18:18:59;10.07;;;4.40;;
46765;SDS011;32527;51.986;5.842;2022-11-15T18:21:26;8.73;;;4.50;;
46765;SDS011;32527;51.986;5.842;2022-11-15T18:23:54;11.73;;;5.20;;
46765;SDS011;32527;51.986;5.842;2022-11-15T18:26:22;8.63;;;5.35;;
46765;SDS011;32527;51.986;5.842;2022-11-15T18:28:51;10.45;;;5.38;;
46765;SDS011;32527;51.986;5.842;2022-11-15T18:31:23;9.65;;;5.90;;
46765;SDS011;32527;51.986;5.842;2022-11-15T18:33:50;9.35;;;5.45;;
46765;SDS011;32527;51.986;5.842;2022-11-15T18:36:17;11.13;;;5.88;;
46765;SDS011;32527;51.986;5.842;2022-11-15T18:38:47;12.50;;;5.85;;
46765;SDS011;32527;51.986;5.842;2022-11-15T18:41:18;13.50;;;8.07;;
46765;SDS011;32527;51.986;5.842;2022-11-15T18:43:48;15.98;;;6.45;;